Time;durP1;ratioP1;P1;durP2;ratioP2;P2;SDS_P1;SDS_P2;PMS_P1;PMS_P2;Temp;Humidity;BMP_temperature;BMP_pressure;BME280_temperature;BME280_humidity;BME280_pressure;Samples;Min_cycle;Max_cycle;Signal;HPM_P1;HPM_P2
2023/11/24 00:00:41;;;;;;;9.13;2.90;;;9.00;99.90;;;;;;4830675;29;20222;-65
2023/11/24 00:03:08;;;;;;;4.60;2.20;;;8.90;99.90;;;;;;4847716;29;20228;-64
2023/11/24 00:05:34;;;;;;;12.83;3.30;;;8.80;99.90;;;;;;4846516;29;20209;-64
2023/11/24 00:08:00;;;;;;;8.50;2.70;;;8.70;99.90;;;;;;4828220;29;20431;-65
2023/11/24 00:10:28;;;;;;;6.43;2.00;;;8.60;99.90;;;;;;4853228;29;20208;-64
2023/11/24 00:12:54;;;;;;;17.17;3.20;;;8.60;99.90;;;;;;4846139;29;20630;-63
2023/11/24 00:15:20;;;;;;;19.50;3.40;;;8.60;99.90;;;;;;4828518;29;20458;-64
2023/11/24 00:17:45;;;;;;;26.40;3.80;;;8.60;99.90;;;;;;4829702;29;20665;-65
2023/11/24 00:20:13;;;;;;;12.57;2.50;;;8.50;99.90;;;;;;4829821;29;20217;-64
2023/11/24 00:22:39;;;;;;;11.80;2.43;;;8.50;99.90;;;;;;4846713;29;20299;-65
2023/11/24 00:25:06;;;;;;;6.80;2.47;;;8.50;99.90;;;;;;4847502;29;20466;-65
2023/11/24 00:27:32;;;;;;;8.87;3.00;;;8.50;99.90;;;;;;4841901;29;20205;-66
2023/11/24 00:29:57;;;;;;;9.63;2.90;;;8.50;99.90;;;;;;4829118;29;20511;-67
2023/11/24 00:32:23;;;;;;;13.67;3.10;;;8.50;99.90;;;;;;4838758;29;20272;-66
2023/11/24 00:34:50;;;;;;;13.03;3.27;;;8.50;99.90;;;;;;4836934;29;20336;-64
2023/11/24 00:37:17;;;;;;;14.63;3.80;;;8.40;99.90;;;;;;4849727;29;20514;-64
2023/11/24 00:39:44;;;;;;;7.47;3.03;;;8.40;99.90;;;;;;4830339;29;20280;-64
2023/11/24 00:42:10;;;;;;;23.33;2.80;;;8.40;99.90;;;;;;4826769;29;20415;-64
2023/11/24 00:44:36;;;;;;;19.87;4.00;;;8.30;99.90;;;;;;4840655;29;20529;-64
2023/11/24 00:47:02;;;;;;;11.60;3.43;;;8.30;99.90;;;;;;4828054;29;20538;-64
2023/11/24 00:49:27;;;;;;;11.43;2.50;;;8.30;99.90;;;;;;4827174;29;20522;-64
2023/11/24 00:51:53;;;;;;;9.13;2.70;;;8.20;99.90;;;;;;4841636;29;20194;-64
2023/11/24 00:54:18;;;;;;;9.63;2.30;;;8.20;99.90;;;;;;4841586;29;20206;-64
2023/11/24 00:56:44;;;;;;;12.80;2.90;;;8.20;99.90;;;;;;4827466;29;20559;-64
2023/11/24 00:59:10;;;;;;;8.63;3.10;;;8.10;99.90;;;;;;4827434;29;20492;-64
2023/11/24 01:01:36;;;;;;;10.57;4.37;;;8.10;99.90;;;;;;4827184;29;20515;-64
2023/11/24 01:04:02;;;;;;;12.83;3.40;;;8.10;99.90;;;;;;4827493;29;20462;-64
2023/11/24 01:06:28;;;;;;;21.63;3.97;;;8.00;99.90;;;;;;4841404;29;20450;-64
2023/11/24 01:08:53;;;;;;;18.83;4.50;;;8.00;99.90;;;;;;4827358;29;20217;-64
2023/11/24 01:11:19;;;;;;;12.80;3.00;;;8.00;99.90;;;;;;4840754;29;20488;-65
2023/11/24 01:13:46;;;;;;;9.90;3.23;;;8.00;99.90;;;;;;4830691;29;20265;-64
2023/11/24 01:16:11;;;;;;;20.00;3.43;;;7.90;99.90;;;;;;4826852;29;20222;-64
2023/11/24 01:18:37;;;;;;;15.80;2.93;;;7.90;99.90;;;;;;4827469;29;20415;-64
2023/11/24 01:21:07;;;;;;;12.07;3.80;;;7.90;99.90;;;;;;4858397;29;20713;-64
2023/11/24 01:23:35;;;;;;;15.10;3.60;;;7.90;99.90;;;;;;4845464;29;20421;-63
2023/11/24 01:26:01;;;;;;;24.67;5.13;;;7.90;99.90;;;;;;4845579;29;20442;-63
2023/11/24 01:28:27;;;;;;;13.20;3.30;;;7.90;99.90;;;;;;4835237;29;20915;-64
2023/11/24 01:30:52;;;;;;;14.20;4.73;;;7.90;99.90;;;;;;4827412;29;20426;-64
2023/11/24 01:33:18;;;;;;;13.13;2.50;;;7.80;99.90;;;;;;4845374;29;20243;-64
2023/11/24 01:35:43;;;;;;;15.70;3.77;;;7.80;99.90;;;;;;4845328;29;20236;-64
2023/11/24 01:38:09;;;;;;;10.87;2.30;;;7.80;99.90;;;;;;4843873;29;20255;-64
2023/11/24 01:40:37;;;;;;;16.13;2.80;;;7.70;99.90;;;;;;4845529;29;20610;-64
2023/11/24 01:43:03;;;;;;;19.73;4.23;;;7.70;99.90;;;;;;4835623;29;20284;-65
2023/11/24 01:45:29;;;;;;;25.30;4.03;;;7.70;99.90;;;;;;4826769;29;20438;-62
2023/11/24 01:47:54;;;;;;;21.47;4.30;;;7.60;99.90;;;;;;4827681;29;20776;-63
2023/11/24 01:50:20;;;;;;;16.83;3.97;;;7.50;99.90;;;;;;4827352;29;20201;-64
2023/11/24 01:52:47;;;;;;;10.03;3.10;;;7.50;99.90;;;;;;4827291;29;20198;-63
2023/11/24 01:55:16;;;;;;;18.10;4.00;;;7.40;99.90;;;;;;4826959;29;20971;-64
2023/11/24 01:57:42;;;;;;;20.90;3.80;;;7.40;99.90;;;;;;4826270;29;20471;-63
2023/11/24 02:00:13;;;;;;;39.10;5.20;;;7.40;99.90;;;;;;4826064;29;20442;-63
2023/11/24 02:02:40;;;;;;;26.20;5.53;;;7.50;99.90;;;;;;4826715;29;20485;-63
2023/11/24 02:05:07;;;;;;;12.00;3.40;;;7.50;99.90;;;;;;4824686;29;20937;-63
2023/11/24 02:07:33;;;;;;;15.50;3.80;;;7.40;99.90;;;;;;4825856;29;20472;-63
2023/11/24 02:09:59;;;;;;;13.37;2.33;;;7.30;99.90;;;;;;4840350;29;20465;-63
2023/11/24 02:12:25;;;;;;;9.77;2.77;;;7.30;99.90;;;;;;4839782;29;20430;-63
2023/11/24 02:14:51;;;;;;;7.87;2.10;;;7.30;99.90;;;;;;4835511;29;20461;-62
2023/11/24 02:17:16;;;;;;;7.13;1.70;;;7.30;99.90;;;;;;4827152;29;20297;-63
2023/11/24 02:19:44;;;;;;;4.73;1.60;;;7.20;99.90;;;;;;4829840;29;20586;-65
2023/11/24 02:22:09;;;;;;;5.77;1.60;;;7.20;99.90;;;;;;4849180;29;20473;-64
2023/11/24 02:24:35;;;;;;;8.40;2.07;;;7.10;99.90;;;;;;4846936;29;20446;-63
2023/11/24 02:27:01;;;;;;;3.27;1.53;;;7.10;99.90;;;;;;4846633;29;20515;-64
2023/11/24 02:29:27;;;;;;;7.33;1.67;;;7.10;99.90;;;;;;4831844;29;20507;-63
2023/11/24 02:31:53;;;;;;;6.17;1.80;;;7.00;99.90;;;;;;4862521;29;20221;-64
2023/11/24 02:34:19;;;;;;;6.67;1.77;;;6.90;99.90;;;;;;4848048;29;20197;-64
2023/11/24 02:36:45;;;;;;;4.20;1.83;;;6.80;99.90;;;;;;4861380;29;20591;-64
2023/11/24 02:39:11;;;;;;;5.93;1.90;;;6.80;99.90;;;;;;4846964;29;20194;-63
2023/11/24 02:41:37;;;;;;;4.83;1.30;;;6.70;99.90;;;;;;4846893;29;20489;-63
2023/11/24 02:44:02;;;;;;;11.07;1.43;;;6.70;99.90;;;;;;4829897;29;20419;-64
2023/11/24 02:46:28;;;;;;;3.87;1.27;;;6.70;99.90;;;;;;4828340;29;20525;-65
2023/11/24 02:48:53;;;;;;;5.00;1.27;;;6.70;99.90;;;;;;4828777;29;20490;-64
2023/11/24 02:51:19;;;;;;;3.70;1.40;;;6.70;99.90;;;;;;4828328;29;20503;-63
2023/11/24 02:53:47;;;;;;;2.80;1.30;;;6.70;99.90;;;;;;4829678;29;20205;-64
2023/11/24 02:56:12;;;;;;;1.87;1.27;;;6.70;99.90;;;;;;4828563;29;20253;-63
2023/11/24 02:58:39;;;;;;;3.37;1.17;;;6.70;99.90;;;;;;4828126;29;20747;-64
2023/11/24 03:01:07;;;;;;;4.60;1.70;;;6.70;99.90;;;;;;4828328;29;20230;-64
2023/11/24 03:03:33;;;;;;;6.30;1.43;;;6.70;99.90;;;;;;4844201;29;20506;-65
2023/11/24 03:06:05;;;;;;;4.90;1.77;;;6.60;99.90;;;;;;4844611;29;20538;-65
2023/11/24 03:08:32;;;;;;;13.10;2.17;;;6.60;99.90;;;;;;4828590;29;20441;-64
2023/11/24 03:10:58;;;;;;;6.30;1.53;;;6.60;99.90;;;;;;4828049;29;20435;-64
2023/11/24 03:13:24;;;;;;;4.37;1.50;;;6.60;99.90;;;;;;4832249;29;20507;-64
2023/11/24 03:15:51;;;;;;;7.40;1.60;;;6.50;99.90;;;;;;4827851;29;20638;-64
2023/11/24 03:18:16;;;;;;;10.33;2.43;;;6.50;99.90;;;;;;4827889;29;20585;-64
2023/11/24 03:20:42;;;;;;;7.50;2.80;;;6.50;99.90;;;;;;4827998;29;20454;-65
2023/11/24 03:23:08;;;;;;;12.77;2.40;;;6.40;99.90;;;;;;4842179;29;20277;-64
2023/11/24 03:25:34;;;;;;;6.80;2.20;;;6.40;99.90;;;;;;4827763;29;20262;-64
2023/11/24 03:28:00;;;;;;;9.97;2.10;;;6.30;99.90;;;;;;4827606;29;20201;-63
2023/11/24 03:30:27;;;;;;;11.93;2.47;;;6.30;99.90;;;;;;4828172;29;20443;-64
2023/11/24 03:32:52;;;;;;;14.73;3.20;;;6.20;99.90;;;;;;4827925;29;20206;-65
2023/11/24 03:35:18;;;;;;;5.70;1.60;;;6.10;99.90;;;;;;4827684;29;20458;-65
2023/11/24 03:37:44;;;;;;;8.17;2.17;;;6.00;99.90;;;;;;4828295;29;20583;-64
2023/11/24 03:40:10;;;;;;;7.50;1.43;;;6.00;99.90;;;;;;4827639;29;20841;-64
2023/11/24 03:42:36;;;;;;;5.27;1.63;;;5.90;99.90;;;;;;4829873;29;20193;-65
2023/11/24 03:45:02;;;;;;;4.00;1.80;;;5.90;99.90;;;;;;4830776;29;20467;-65
2023/11/24 03:47:31;;;;;;;3.40;1.60;;;5.90;99.90;;;;;;4828080;29;20193;-64
2023/11/24 03:49:59;;;;;;;10.10;2.27;;;5.90;99.90;;;;;;4827561;29;20213;-64
2023/11/24 03:52:25;;;;;;;6.67;2.30;;;5.90;99.90;;;;;;4842121;29;20526;-63
2023/11/24 03:54:51;;;;;;;8.43;2.20;;;5.90;99.90;;;;;;4828078;29;20451;-65
2023/11/24 03:57:18;;;;;;;13.40;2.80;;;5.90;99.90;;;;;;4826869;29;20463;-64
2023/11/24 03:59:43;;;;;;;11.77;2.40;;;5.90;99.90;;;;;;4827494;29;20467;-64
2023/11/24 04:02:09;;;;;;;5.77;2.27;;;6.00;99.90;;;;;;4827077;29;20754;-65
2023/11/24 04:04:34;;;;;;;7.37;2.30;;;6.00;99.90;;;;;;4841823;29;20217;-65
2023/11/24 04:07:00;;;;;;;9.40;1.90;;;6.00;99.90;;;;;;4827975;29;20238;-64
2023/11/24 04:09:26;;;;;;;9.60;2.30;;;6.00;99.90;;;;;;4841979;29;20223;-65
2023/11/24 04:11:54;;;;;;;10.53;2.67;;;6.10;99.90;;;;;;4842553;29;20453;-64
2023/11/24 04:14:20;;;;;;;12.67;2.70;;;6.10;99.90;;;;;;4825641;29;20486;-65
2023/11/24 04:16:46;;;;;;;9.67;2.40;;;6.10;99.90;;;;;;4827226;29;20478;-64
2023/11/24 04:19:11;;;;;;;19.50;3.13;;;6.10;99.90;;;;;;4827383;29;20431;-64
2023/11/24 04:21:39;;;;;;;11.13;2.30;;;6.10;99.90;;;;;;4835699;29;20189;-65
2023/11/24 04:24:06;;;;;;;14.03;2.33;;;6.10;99.90;;;;;;4845642;29;20209;-65
2023/11/24 04:26:31;;;;;;;15.30;2.43;;;6.00;99.90;;;;;;4845528;29;20739;-65
2023/11/24 04:28:57;;;;;;;5.00;1.73;;;6.00;99.90;;;;;;4828856;29;20423;-64
2023/11/24 04:31:23;;;;;;;7.80;1.80;;;6.00;99.90;;;;;;4827047;29;20599;-64
2023/11/24 04:33:49;;;;;;;8.77;1.97;;;5.90;99.90;;;;;;4826815;29;20205;-64
2023/11/24 04:36:14;;;;;;;7.77;2.00;;;5.90;99.90;;;;;;4826759;29;20474;-64
2023/11/24 04:38:40;;;;;;;11.23;2.87;;;5.90;99.90;;;;;;4827887;29;20289;-64
2023/11/24 04:41:06;;;;;;;16.90;2.40;;;5.90;99.90;;;;;;4826555;29;20251;-64
2023/11/24 04:43:32;;;;;;;15.77;2.07;;;5.90;99.90;;;;;;4835501;29;20198;-63
2023/11/24 04:45:57;;;;;;;15.07;3.00;;;5.90;99.90;;;;;;4825131;29;20542;-64
2023/11/24 04:48:23;;;;;;;8.23;2.00;;;5.90;99.90;;;;;;4826623;29;20545;-64
2023/11/24 04:50:48;;;;;;;12.13;2.07;;;5.90;99.90;;;;;;4826614;29;20194;-65
2023/11/24 04:53:15;;;;;;;11.30;3.20;;;5.80;99.90;;;;;;4827429;29;20217;-63
2023/11/24 04:55:41;;;;;;;9.53;2.30;;;5.80;99.90;;;;;;4826792;29;20262;-64
2023/11/24 04:58:07;;;;;;;11.20;2.53;;;5.80;99.90;;;;;;4826261;29;20820;-64
2023/11/24 05:00:33;;;;;;;16.97;2.50;;;5.80;99.90;;;;;;4826329;29;20458;-65
2023/11/24 05:02:58;;;;;;;11.13;2.17;;;5.80;99.90;;;;;;4828051;29;20194;-65
2023/11/24 05:05:24;;;;;;;11.90;2.37;;;5.80;99.90;;;;;;4828271;29;20206;-65
2023/11/24 05:07:49;;;;;;;12.50;2.17;;;5.80;99.90;;;;;;4828384;29;20674;-64
2023/11/24 05:10:15;;;;;;;12.97;2.73;;;5.80;99.90;;;;;;4828427;29;20254;-65
2023/11/24 05:12:40;;;;;;;18.17;2.80;;;5.80;99.90;;;;;;4829614;29;20198;-64
2023/11/24 05:15:08;;;;;;;17.13;3.00;;;5.80;99.90;;;;;;4834276;29;20225;-63
2023/11/24 05:17:34;;;;;;;10.47;2.60;;;5.70;99.90;;;;;;4848321;29;20228;-66
2023/11/24 05:20:00;;;;;;;13.67;2.80;;;5.60;99.90;;;;;;4838601;29;20434;-64
2023/11/24 05:22:26;;;;;;;15.30;3.10;;;5.60;99.90;;;;;;4843633;29;20418;-65
2023/11/24 05:24:51;;;;;;;12.10;2.20;;;5.50;99.90;;;;;;4847130;29;20205;-64
2023/11/24 05:27:17;;;;;;;13.47;2.00;;;5.50;99.90;;;;;;4841921;29;20201;-65
2023/11/24 05:29:43;;;;;;;6.70;2.20;;;5.50;99.90;;;;;;4827584;29;20512;-64
2023/11/24 05:32:08;;;;;;;10.63;1.90;;;5.50;99.90;;;;;;4827973;29;20471;-63
2023/11/24 05:34:35;;;;;;;13.23;3.00;;;5.50;99.90;;;;;;4827965;29;20194;-64
2023/11/24 05:37:05;;;;;;;6.90;2.23;;;5.60;99.90;;;;;;4828102;29;20221;-64
2023/11/24 05:39:31;;;;;;;18.30;2.60;;;5.70;99.90;;;;;;4828621;29;20535;-65
2023/11/24 05:41:57;;;;;;;9.07;2.00;;;5.70;99.90;;;;;;4827689;29;20809;-65
2023/11/24 05:44:22;;;;;;;13.67;3.00;;;5.70;99.90;;;;;;4841511;29;20434;-64
2023/11/24 05:46:48;;;;;;;15.87;2.50;;;5.70;99.90;;;;;;4829313;29;20280;-65
2023/11/24 05:49:15;;;;;;;26.60;2.80;;;5.70;99.90;;;;;;4845389;29;20204;-65
2023/11/24 05:51:40;;;;;;;12.40;2.93;;;5.70;99.90;;;;;;4845893;29;20489;-64
2023/11/24 05:54:06;;;;;;;13.63;2.47;;;5.70;99.90;;;;;;4848608;29;20433;-64
2023/11/24 05:56:32;;;;;;;16.47;3.03;;;5.70;99.90;;;;;;4848283;29;20237;-66
2023/11/24 05:58:57;;;;;;;16.87;3.20;;;5.60;99.90;;;;;;4832436;29;20293;-64
2023/11/24 06:01:23;;;;;;;15.90;3.03;;;5.70;99.90;;;;;;4830633;29;20270;-65
2023/11/24 06:03:49;;;;;;;8.87;2.30;;;5.70;99.90;;;;;;4845712;29;20200;-65
2023/11/24 06:06:14;;;;;;;18.53;2.70;;;5.70;99.90;;;;;;4831847;29;20232;-65
2023/11/24 06:08:40;;;;;;;25.63;4.83;;;5.70;99.90;;;;;;4830851;29;20237;-66
2023/11/24 06:11:05;;;;;;;31.30;4.13;;;5.80;99.90;;;;;;4831155;29;20194;-63
2023/11/24 06:13:31;;;;;;;24.97;4.17;;;5.80;99.90;;;;;;4834134;29;20641;-64
2023/11/24 06:15:57;;;;;;;26.47;4.23;;;5.80;99.90;;;;;;4837531;29;20217;-65
2023/11/24 06:18:22;;;;;;;12.70;2.93;;;5.80;99.90;;;;;;4849321;29;20527;-67
2023/11/24 06:20:48;;;;;;;21.90;3.83;;;5.80;99.90;;;;;;4850311;29;20200;-65
2023/11/24 06:23:13;;;;;;;19.40;3.90;;;5.90;99.90;;;;;;4831122;29;20258;-70
2023/11/24 06:25:39;;;;;;;13.37;3.00;;;5.90;99.90;;;;;;4830489;29;20221;-64
2023/11/24 06:28:05;;;;;;;17.57;4.00;;;5.90;99.90;;;;;;4837702;29;20262;-65
2023/11/24 06:30:31;;;;;;;17.53;4.20;;;5.90;99.90;;;;;;4841584;29;20201;-65
2023/11/24 06:32:56;;;;;;;31.53;4.63;;;5.90;99.90;;;;;;4833298;29;20450;-65
2023/11/24 06:35:22;;;;;;;13.87;4.20;;;5.90;99.90;;;;;;4845283;29;20296;-65
2023/11/24 06:37:48;;;;;;;15.10;4.03;;;5.90;99.90;;;;;;4849308;29;20660;-66
2023/11/24 06:40:13;;;;;;;22.93;4.80;;;5.90;99.90;;;;;;4841392;29;20570;-68
2023/11/24 06:42:42;;;;;;;23.87;5.37;;;5.90;99.90;;;;;;4829998;29;20277;-70
2023/11/24 06:45:09;;;;;;;22.60;3.40;;;5.80;99.90;;;;;;4844079;29;20256;-68
2023/11/24 06:47:39;;;;;;;20.67;4.20;;;5.80;99.90;;;;;;4850096;29;20433;-65
2023/11/24 06:50:06;;;;;;;20.53;3.23;;;5.80;99.90;;;;;;4850012;29;20446;-64
2023/11/24 06:52:32;;;;;;;23.13;4.47;;;5.80;99.90;;;;;;4848857;29;20422;-66
2023/11/24 06:54:57;;;;;;;19.13;4.10;;;5.80;99.90;;;;;;4839672;29;20455;-70
2023/11/24 06:57:23;;;;;;;18.33;2.80;;;5.80;99.90;;;;;;4834243;29;20224;-66
2023/11/24 06:59:49;;;;;;;20.30;4.00;;;5.80;99.90;;;;;;4834009;29;20202;-64
2023/11/24 07:02:14;;;;;;;15.40;3.53;;;5.80;99.90;;;;;;4837769;29;20313;-65
2023/11/24 07:04:40;;;;;;;16.50;3.53;;;5.80;99.90;;;;;;4833742;29;20233;-64
2023/11/24 07:07:05;;;;;;;30.33;5.77;;;5.80;99.90;;;;;;4831238;29;20194;-66
2023/11/24 07:09:31;;;;;;;30.40;4.60;;;5.90;99.90;;;;;;4829920;29;20190;-65
2023/11/24 07:11:56;;;;;;;19.40;3.87;;;5.80;99.90;;;;;;4830351;29;20270;-66
2023/11/24 07:14:22;;;;;;;25.77;5.70;;;5.90;99.90;;;;;;4830325;29;20254;-67
2023/11/24 07:16:47;;;;;;;15.23;3.27;;;5.90;99.90;;;;;;4838099;29;20224;-66
2023/11/24 07:19:13;;;;;;;27.93;4.87;;;5.90;99.90;;;;;;4830146;29;20308;-66
2023/11/24 07:21:38;;;;;;;13.20;3.40;;;5.80;99.90;;;;;;4847629;29;20223;-66
2023/11/24 07:24:05;;;;;;;27.13;4.00;;;5.80;99.90;;;;;;4831211;29;20193;-66
2023/11/24 07:26:30;;;;;;;19.13;3.40;;;5.80;99.90;;;;;;4830850;29;20229;-67
2023/11/24 07:28:56;;;;;;;17.60;3.73;;;5.90;99.90;;;;;;4822893;29;20535;-65
2023/11/24 07:31:22;;;;;;;18.60;3.80;;;6.00;99.90;;;;;;4830641;29;20286;-67
2023/11/24 07:33:48;;;;;;;12.90;3.60;;;6.00;99.90;;;;;;4839805;29;20197;-67
2023/11/24 07:36:19;;;;;;;24.67;3.40;;;6.20;99.90;;;;;;4836725;29;20462;-66
2023/11/24 07:38:45;;;;;;;21.80;3.23;;;6.30;99.90;;;;;;4842313;29;20424;-66
2023/11/24 07:41:11;;;;;;;17.77;3.77;;;6.40;99.90;;;;;;4830502;29;20476;-67
2023/11/24 07:43:37;;;;;;;15.10;3.93;;;6.50;99.90;;;;;;4836614;29;20427;-65
2023/11/24 07:46:07;;;;;;;7.40;2.13;;;6.70;99.90;;;;;;4836198;29;20520;-66
2023/11/24 07:48:34;;;;;;;6.10;1.80;;;6.70;99.90;;;;;;4841809;29;20590;-76
2023/11/24 07:51:00;;;;;;;13.77;3.57;;;6.70;99.90;;;;;;4850235;29;20893;-75
2023/11/24 07:53:27;;;;;;;18.53;5.33;;;6.60;99.90;;;;;;4836345;29;20433;-76
2023/11/24 07:55:52;;;;;;;16.80;4.10;;;6.70;99.90;;;;;;4847613;29;20469;-72
2023/11/24 07:58:19;;;;;;;11.67;3.80;;;6.80;99.90;;;;;;4837347;29;20455;-75
2023/11/24 08:00:45;;;;;;;22.40;4.20;;;6.70;99.90;;;;;;4840931;29;20236;-74
2023/11/24 08:03:12;;;;;;;10.47;2.90;;;6.70;99.90;;;;;;4847553;29;20481;-76
2023/11/24 08:05:39;;;;;;;13.60;4.03;;;6.70;99.90;;;;;;4849518;29;20452;-73
2023/11/24 08:08:05;;;;;;;16.37;3.60;;;6.70;99.90;;;;;;4834809;29;20440;-75
2023/11/24 08:10:31;;;;;;;12.17;2.93;;;6.70;99.90;;;;;;4850696;29;20430;-74
2023/11/24 08:12:57;;;;;;;5.60;1.97;;;6.60;99.90;;;;;;4852158;29;20421;-74
2023/11/24 08:15:23;;;;;;;7.27;1.70;;;6.60;99.90;;;;;;4835164;29;20461;-74
2023/11/24 08:17:49;;;;;;;7.33;2.10;;;6.50;99.90;;;;;;4864766;29;20469;-74
2023/11/24 08:20:15;;;;;;;4.80;1.37;;;6.40;99.90;;;;;;4831571;29;20190;-74
2023/11/24 08:22:40;;;;;;;4.60;1.40;;;6.20;99.90;;;;;;4843945;29;20579;-75
2023/11/24 08:25:08;;;;;;;6.30;1.63;;;6.20;99.90;;;;;;4865511;29;20284;-74
2023/11/24 08:27:35;;;;;;;9.57;1.50;;;6.10;99.90;;;;;;4826793;29;20189;-75
2023/11/24 08:30:03;;;;;;;6.10;1.47;;;6.10;99.90;;;;;;4849419;29;20501;-75
2023/11/24 08:32:29;;;;;;;3.50;1.20;;;6.10;99.90;;;;;;4863361;29;20493;-76
2023/11/24 08:34:54;;;;;;;6.40;1.53;;;6.00;99.90;;;;;;4846345;29;20463;-75
2023/11/24 08:37:20;;;;;;;4.80;1.50;;;5.90;99.90;;;;;;4857754;29;20227;-78
2023/11/24 08:39:46;;;;;;;4.10;1.63;;;5.90;99.90;;;;;;4872807;29;20569;-75
2023/11/24 08:42:12;;;;;;;5.43;1.93;;;5.80;99.90;;;;;;4828400;29;20521;-76
2023/11/24 08:44:38;;;;;;;9.17;3.00;;;5.80;99.90;;;;;;4833395;29;20538;-75
2023/11/24 08:47:04;;;;;;;2.30;1.47;;;5.90;99.90;;;;;;4847594;29;20411;-73
2023/11/24 08:49:30;;;;;;;3.97;1.23;;;5.90;99.90;;;;;;4846544;29;20528;-75
2023/11/24 08:51:55;;;;;;;13.87;2.77;;;6.10;99.90;;;;;;4849774;29;20625;-74
2023/11/24 08:54:22;;;;;;;3.40;1.90;;;6.40;99.90;;;;;;4855211;29;20258;-75
2023/11/24 08:56:49;;;;;;;4.17;1.30;;;6.50;99.90;;;;;;4860994;29;20217;-76
2023/11/24 08:59:14;;;;;;;3.43;1.50;;;6.60;99.90;;;;;;4839173;29;20558;-74
2023/11/24 09:01:40;;;;;;;8.73;2.57;;;6.80;99.90;;;;;;4864455;29;20457;-77
2023/11/24 09:04:06;;;;;;;5.40;1.40;;;6.90;99.90;;;;;;4856685;29;20201;-75
2023/11/24 09:06:31;;;;;;;7.30;2.63;;;6.90;99.90;;;;;;4828591;29;20273;-75
2023/11/24 09:09:00;;;;;;;6.57;1.93;;;6.90;99.90;;;;;;4851798;29;20194;-76
2023/11/24 09:11:26;;;;;;;5.87;1.67;;;6.90;99.90;;;;;;4867573;29;20209;-74
2023/11/24 09:13:52;;;;;;;7.30;1.77;;;7.00;99.90;;;;;;4849041;29;20431;-76
2023/11/24 09:16:18;;;;;;;9.80;2.47;;;7.00;99.90;;;;;;4844317;29;20466;-74
2023/11/24 09:18:44;;;;;;;4.40;1.40;;;7.10;99.90;;;;;;4848650;29;20550;-76
2023/11/24 09:21:10;;;;;;;7.43;1.80;;;7.10;99.90;;;;;;4860556;29;20435;-76
2023/11/24 09:23:37;;;;;;;10.17;2.07;;;7.10;99.90;;;;;;4866814;29;20430;-76
2023/11/24 09:26:06;;;;;;;9.03;2.07;;;7.20;99.90;;;;;;4846317;29;20524;-76
2023/11/24 09:28:31;;;;;;;7.93;1.67;;;7.30;99.90;;;;;;4850443;29;20442;-74
2023/11/24 09:30:57;;;;;;;7.50;1.90;;;7.50;99.90;;;;;;4847101;29;20446;-75
2023/11/24 09:33:23;;;;;;;6.17;1.83;;;7.60;99.90;;;;;;4870896;29;20193;-74
2023/11/24 09:35:49;;;;;;;9.77;2.80;;;7.70;99.90;;;;;;4850570;29;20557;-73
2023/11/24 09:38:15;;;;;;;11.37;1.87;;;7.80;99.90;;;;;;4857614;29;20217;-78
2023/11/24 09:40:41;;;;;;;16.23;3.03;;;7.80;99.90;;;;;;4867651;29;20471;-74
2023/11/24 09:43:08;;;;;;;3.23;1.80;;;7.80;99.90;;;;;;4867040;29;20445;-75
2023/11/24 09:45:34;;;;;;;9.17;2.03;;;7.90;99.90;;;;;;4843632;29;20229;-75
2023/11/24 09:48:02;;;;;;;12.97;3.20;;;7.90;99.90;;;;;;4878399;29;20426;-78
2023/11/24 09:50:27;;;;;;;5.90;2.00;;;8.00;99.90;;;;;;4848039;29;20222;-74
2023/11/24 09:52:59;;;;;;;6.70;2.00;;;8.00;99.90;;;;;;4843531;29;20719;-75
2023/11/24 09:55:26;;;;;;;11.40;1.70;;;8.10;99.90;;;;;;4844402;29;20272;-74
2023/11/24 09:57:52;;;;;;;3.87;1.90;;;7.90;99.90;;;;;;4857389;29;20462;-77
2023/11/24 10:00:20;;;;;;;9.00;2.40;;;7.70;99.90;;;;;;4866840;29;20467;-75
2023/11/24 10:02:47;;;;;;;6.63;2.10;;;7.50;99.90;;;;;;4876405;29;20453;-75
2023/11/24 10:05:21;;;;;;;7.30;1.57;;;7.40;99.90;;;;;;4865851;29;20485;-74
2023/11/24 10:07:50;;;;;;;5.93;1.90;;;7.40;99.90;;;;;;4849825;29;20423;-76
2023/11/24 10:10:34;;;;;;;6.90;2.03;;;7.40;99.90;;;;;;4848050;29;20435;-77
2023/11/24 10:13:01;;;;;;;6.80;1.97;;;7.40;99.90;;;;;;4844015;29;20487;-76
2023/11/24 10:15:27;;;;;;;5.20;1.30;;;7.40;99.90;;;;;;4866878;29;20480;-75
2023/11/24 10:17:53;;;;;;;4.27;1.50;;;7.40;99.90;;;;;;4833741;29;20530;-76
2023/11/24 10:20:22;;;;;;;6.33;1.57;;;7.30;99.90;;;;;;4857699;29;20422;-76
2023/11/24 10:22:49;;;;;;;4.03;1.30;;;7.30;99.90;;;;;;4871199;29;20839;-75
2023/11/24 10:25:23;;;;;;;6.83;1.60;;;7.30;99.90;;;;;;4857126;29;20480;-77
2023/11/24 10:28:05;;;;;;;11.97;3.23;;;7.30;99.90;;;;;;4855272;29;20461;-76
2023/11/24 10:30:33;;;;;;;9.50;1.70;;;7.40;99.90;;;;;;4857865;29;20450;-76
2023/11/24 10:33:02;;;;;;;3.83;1.43;;;7.30;99.90;;;;;;4846381;29;20441;-77
2023/11/24 10:35:29;;;;;;;8.17;1.20;;;7.30;99.90;;;;;;4842314;29;20455;-76
2023/11/24 10:37:56;;;;;;;6.93;2.00;;;7.30;99.90;;;;;;4847823;29;20513;-76
2023/11/24 10:40:23;;;;;;;4.40;2.20;;;7.30;99.90;;;;;;4872193;29;20832;-75
2023/11/24 10:42:51;;;;;;;3.50;1.57;;;7.00;99.90;;;;;;4858901;29;20443;-74
2023/11/24 10:45:19;;;;;;;5.07;1.90;;;6.70;99.90;;;;;;4849499;29;20442;-78
2023/11/24 10:47:59;;;;;;;3.10;1.50;;;6.50;99.90;;;;;;4856313;29;20462;-77
2023/11/24 10:50:27;;;;;;;5.70;1.50;;;6.20;99.90;;;;;;4854311;29;20442;-74
2023/11/24 10:53:09;;;;;;;4.57;1.60;;;6.00;99.90;;;;;;4849460;29;20510;-77
2023/11/24 10:55:38;;;;;;;1.73;1.10;;;5.80;99.90;;;;;;4850082;29;20455;-75
2023/11/24 10:58:05;;;;;;;1.73;1.13;;;5.50;99.90;;;;;;4833012;29;20914;-74
2023/11/24 11:00:30;;;;;;;5.45;1.48;;;5.20;99.90;;;;;;4844087;29;20435;-75
2023/11/24 11:02:57;;;;;;;1.87;1.10;;;5.10;99.90;;;;;;4860734;29;20185;-74
2023/11/24 11:05:58;;;;;;;3.20;1.20;;;5.20;99.90;;;;;;4845024;29;20296;-77
2023/11/24 11:08:34;;;;;;;1.20;1.00;;;5.20;99.90;;;;;;4819113;29;20430;-76
2023/11/24 11:11:06;;;;;;;1.23;0.90;;;5.30;99.90;;;;;;4864383;29;20443;-75
2023/11/24 11:13:41;;;;;;;5.37;1.37;;;5.40;99.90;;;;;;4860842;29;20426;-77
2023/11/24 11:16:10;;;;;;;3.30;1.20;;;5.50;99.90;;;;;;4856264;29;20449;-73
2023/11/24 11:18:36;;;;;;;1.87;0.80;;;5.50;99.90;;;;;;4848703;29;20540;-72
2023/11/24 11:21:10;;;;;;;1.97;1.37;;;5.60;99.90;;;;;;4842229;29;20469;-72
2023/11/24 11:23:36;;;;;;;2.33;1.37;;;5.60;99.90;;;;;;4842287;29;20451;-71
2023/11/24 11:26:02;;;;;;;2.70;1.10;;;5.70;99.90;;;;;;4845732;29;20722;-73
2023/11/24 11:28:46;;;;;;;2.13;1.53;;;5.60;99.90;;;;;;4827779;29;20759;-73
2023/11/24 11:31:35;;;;;;;2.23;1.13;;;5.70;99.90;;;;;;4850785;29;20483;-74
2023/11/24 11:34:16;;;;;;;3.00;1.23;;;5.70;99.90;;;;;;4836511;29;20419;-74
2023/11/24 11:37:06;;;;;;;4.13;1.20;;;5.60;99.90;;;;;;4840183;29;20561;-74
2023/11/24 11:39:37;;;;;;;2.13;1.10;;;5.50;99.90;;;;;;4845975;29;20513;-75
2023/11/24 11:42:04;;;;;;;1.40;1.10;;;5.40;99.90;;;;;;4856070;29;20862;-75
2023/11/24 11:44:33;;;;;;;3.07;1.27;;;5.50;99.90;;;;;;4858938;29;20474;-75
2023/11/24 11:47:24;;;;;;;3.97;1.67;;;5.50;99.90;;;;;;4854304;29;20458;-74
2023/11/24 11:49:54;;;;;;;2.30;1.20;;;5.50;99.90;;;;;;4838322;29;20454;-74
2023/11/24 11:52:27;;;;;;;3.87;1.47;;;5.60;99.90;;;;;;4845135;29;20428;-72
2023/11/24 11:54:55;;;;;;;1.23;0.83;;;5.70;99.90;;;;;;4835438;29;20450;-73
2023/11/24 11:57:22;;;;;;;5.30;1.20;;;5.80;99.90;;;;;;4832421;29;20463;-75
2023/11/24 11:59:49;;;;;;;3.10;1.20;;;5.80;99.90;;;;;;4842086;29;20550;-75
2023/11/24 12:02:20;;;;;;;5.00;1.10;;;5.80;99.90;;;;;;4846252;29;20502;-75
2023/11/24 12:04:47;;;;;;;3.27;1.33;;;5.70;99.90;;;;;;4847056;29;20728;-75
2023/11/24 12:07:13;;;;;;;4.00;1.53;;;5.60;99.90;;;;;;4857274;29;20474;-75
2023/11/24 12:09:41;;;;;;;2.40;1.10;;;5.50;99.90;;;;;;4844076;29;20422;-75
2023/11/24 12:12:10;;;;;;;5.40;1.30;;;5.40;99.90;;;;;;4845260;29;20456;-73
2023/11/24 12:14:41;;;;;;;2.17;1.40;;;5.30;99.90;;;;;;4837314;29;20488;-76
2023/11/24 12:17:07;;;;;;;3.63;1.37;;;5.20;99.90;;;;;;4845333;29;20470;-75
2023/11/24 12:19:33;;;;;;;1.57;0.70;;;5.10;99.90;;;;;;4846037;29;20557;-75
2023/11/24 12:22:03;;;;;;;3.27;1.00;;;5.00;99.90;;;;;;4853635;29;20435;-75
2023/11/24 12:24:31;;;;;;;3.97;1.00;;;5.00;99.90;;;;;;4859937;29;20438;-78
2023/11/24 12:26:57;;;;;;;1.67;1.00;;;4.90;99.90;;;;;;4842679;29;20426;-76
2023/11/24 12:29:27;;;;;;;2.30;1.00;;;4.80;99.90;;;;;;4855176;29;20430;-76
2023/11/24 12:31:53;;;;;;;3.00;1.00;;;4.70;99.90;;;;;;4855856;29;20439;-74
2023/11/24 12:34:21;;;;;;;1.83;0.90;;;4.60;99.90;;;;;;4854482;29;20414;-77
2023/11/24 12:36:54;;;;;;;1.73;0.90;;;4.40;99.90;;;;;;4847932;29;20456;-77
2023/11/24 12:39:30;;;;;;;2.03;0.70;;;4.20;99.90;;;;;;4860922;29;20446;-79
2023/11/24 12:41:57;;;;;;;1.07;0.63;;;4.10;99.90;;;;;;4850976;29;20522;-77
2023/11/24 12:44:36;;;;;;;2.00;1.20;;;4.10;99.90;;;;;;4874031;29;20436;-77
2023/11/24 12:47:25;;;;;;;1.10;0.80;;;4.10;99.90;;;;;;4860850;29;20423;-79
2023/11/24 12:50:11;;;;;;;3.37;1.50;;;4.10;99.90;;;;;;4851722;29;20480;-77
2023/11/24 12:52:41;;;;;;;3.97;1.40;;;4.10;99.90;;;;;;4842308;29;20451;-79